Arthur, ND

8:54 AM CDT on August 27, 2014 (GMT -0500)
Argusville | Change Station
CLOSE
Current Station
Personal Weather Station
Location: Argusville, ND
Elevation: 899 ft
Nearby Weather Stations

Elev 899 ft 47.05 °N, 97.03 °W | Updated 7 minutes ago

Overcast
Overcast
52.9 °F
Feels Like 52.9 °F
N
0.0
Wind Variable Wind from North
Gusts 0.0 mph

Today
High -- | Low -- °F
--% Chance of Precip.
Yesterday
High -- | Low -- °F
Precip. -- in
6:41 AM 8:18 PM
Waxing Crescent, 4% visible
Pressure 30.19 in
Visibility 6.0 miles
Clouds Few 100 ft
Overcast 6000 ft
Dew Point 52 °F
Humidity 95%
Rainfall 0.00 in
Snow Depth Not available.
UV 0 out of 12
Pollen 10.00 out of 12
Air Quality Not available.
Flu Activity Not available.
SPECI KFAR 271300Z 00000KT 6SM BR FEW001 OVC060 13/13 A3019 RMK AO2 T01330128

More Conditions Fewer Conditions

Pressure 30.19 in
Visibility 6.0 miles
Clouds Few 100 ft
Overcast 6000 ft
Dew Point 52 °F
Humidity 95%
Rainfall 0.00 in
Snow Depth Not available.
UV 0 out of 12
Pollen 10.00 out of 12
Air Quality Not available.
Flu Activity Not available.
SPECI KFAR 271300Z 00000KT 6SM BR FEW001 OVC060 13/13 A3019 RMK AO2 T01330128

More Conditions Fewer Conditions

10-Day Weather Forecast

Almanac

Astronomy

Aug. 27, 2014 Rise Set
Actual Time 6:41 AM CDT 8:18 PM CDT
Civil Twilight 6:09 AM CDT 8:50 PM CDT
Nautical Twilight 5:30 AM CDT 9:28 PM CDT
Astronomical Twilight 4:47 AM CDT 10:11 PM CDT
Moon 8:49 AM CDT 8:58 PM CDT
Length of Visible Light 14h 40m
Length of Day
13h 36m
Tomorrow will be 3m 11s shorter.
Waxing Crescent, 4% of the Moon is Illuminated
Today
Waxing Crescent
Sep 2
First Quarter
Sep 8
Full
Sep 15
Last Quarter
Sep 24
New

Today's Extremes

State Highs State Lows

Community

WunderPhotos

Upload Photos

1,747,684 photos uploaded!

Nearby

Snow Depth

Station Depth Elevation
No new snow has been reported.

Earthquake Activity

City Distance Mag. Time & Date
No recent earthquake activity has been reported nearby.
Minimum magnitude displayed is 2.5.

Coastal Water Temperatures

Place Temperature
No Stations Reporting

Nearby Weather Stations